< Typhoon 202120 2021 Season Typhoon 202122 >
Typhoon 202121 (NYATOH)
General InformationDetailed Track InformationTrack Information on Google MapsForecast History on Google MapsAccess Analytics MapList of All Images || NewsDisaster Info.WeblogTrackbackTyphoon FrontTwiphoonTyphoon Now!Typhoon ImaginationJMA Disaster Info. XMLResourceGoogle EarthGE AnimationAtom FeedGeoJSON
Detalied Best Track Wind (Time Zone = UTC)
Year Month Day Hour Lat. Long. Wind (kt) Gust (kt) Direc. of Major Storm Axis Radius of Major Storm Axis (nm) Radius of Minor Storm Axis (nm) Direc. of Major Gale Axis Radius of Major Gale Axis (nm) Radius of Minor Gale Axis (nm) Image
2021 11 29 12 11.8 141.1 30 45 - - - - - - Image
2021 11 29 15 12.4 140.5 30 45 - - - - - - Image
2021 11 29 18 12.4 140.4 30 45 - - - - - - Image
2021 11 29 21 12.8 140.1 30 45 - - - - - - Image
2021 11 30 00 13.0 139.8 35 50 - - - N 325 180 Image
2021 11 30 03 13.1 139.3 35 50 - - - N 325 180 Image
2021 11 30 06 13.1 138.4 35 50 - - - N 240 180 Image
2021 11 30 09 12.9 137.5 35 50 - - - N 240 180 Image
2021 11 30 12 13.1 137.2 40 60 - - - NE 240 180 Image
2021 11 30 15 13.2 136.7 40 60 - - - NE 240 180 Image
2021 11 30 18 13.6 136.6 45 65 - - - NE 240 180 Image
2021 11 30 21 14.1 136.4 45 65 - - - NE 240 180 Image
2021 12 1 00 14.1 136.2 50 70 - - - NE 240 180 Image
2021 12 1 03 14.2 135.9 50 70 - - - NE 240 180 Image
2021 12 1 06 14.3 135.7 55 80 symmetric 30 30 NE 240 180 Image
2021 12 1 09 14.6 135.7 55 80 symmetric 30 30 NE 240 180 Image
2021 12 1 12 14.8 135.6 55 80 symmetric 30 30 NE 240 180 Image
2021 12 1 15 15.2 135.6 55 80 symmetric 30 30 NE 240 180 Image
2021 12 1 18 15.8 135.5 65 95 symmetric 45 45 NE 240 180 Image
2021 12 1 21 16.2 135.4 65 95 symmetric 45 45 NE 240 180 Image
2021 12 2 00 16.5 135.5 70 100 symmetric 50 50 NE 240 180 Image
2021 12 2 03 16.9 135.6 70 100 symmetric 50 50 E 240 180 Image
2021 12 2 06 17.5 135.8 75 105 symmetric 60 60 E 240 180 Image
2021 12 2 09 17.8 136.1 75 105 symmetric 60 60 E 240 180 Image
2021 12 2 12 18.2 136.7 80 115 symmetric 75 75 E 240 180 Image
2021 12 2 15 18.9 137.0 80 115 symmetric 75 75 symmetric 240 240 Image
2021 12 2 18 19.5 137.4 85 120 symmetric 80 80 symmetric 240 240 Image
2021 12 2 21 20.2 138.0 85 120 symmetric 80 80 symmetric 240 240 Image
2021 12 3 00 20.9 138.7 100 140 symmetric 110 110 symmetric 300 300 Image
2021 12 3 03 21.7 139.7 100 140 symmetric 110 110 symmetric 300 300 Image
2021 12 3 06 22.5 140.5 100 140 symmetric 110 110 NW 350 250 Image
2021 12 3 09 23.1 141.3 95 135 symmetric 110 110 NW 350 250 Image
2021 12 3 12 24.0 142.3 85 120 symmetric 80 80 NW 350 250 Image
2021 12 3 15 24.7 143.0 85 120 symmetric 80 80 NW 300 250 Image
2021 12 3 18 25.6 144.1 75 105 symmetric 60 60 symmetric 200 200 Image
2021 12 3 21 26.3 144.9 65 95 symmetric 45 45 symmetric 200 200 Image
2021 12 4 00 28.3 146.3 45 65 - - - symmetric 120 120 Image
2021 12 4 03 28.9 147.3 35 50 - - - symmetric 60 60 Image
2021 12 4 06 29.0 148.0 0 0 - - - - - - Image
Japan Meteorological Agency Best Track Data | Correction Date : 2021-12-04
< Typhoon 202120 2021 Season Typhoon 202122 >

Help